createdAt,value
2019-03-25T00:00:08.234Z,1014.82
2019-03-25T00:01:08.242Z,1014.80
2019-03-25T00:02:08.242Z,1014.83
2019-03-25T00:03:08.353Z,1014.74
2019-03-25T00:04:08.229Z,1014.77
2019-03-25T00:05:08.259Z,1014.71
2019-03-25T00:06:08.174Z,1014.73
2019-03-25T00:07:08.183Z,1014.75
2019-03-25T00:08:08.170Z,1014.67
2019-03-25T00:09:08.196Z,1014.75
2019-03-25T00:10:08.124Z,1014.67
2019-03-25T00:11:08.127Z,1014.66
2019-03-25T00:12:08.115Z,1014.65
2019-03-25T00:13:08.092Z,1014.65
2019-03-25T00:14:08.124Z,1014.68
2019-03-25T00:15:08.105Z,1014.62
2019-03-25T00:16:08.054Z,1014.58
2019-03-25T00:17:08.050Z,1014.58
2019-03-25T00:18:08.044Z,1014.67
2019-03-25T00:19:08.053Z,1014.63
2019-03-25T00:20:08.015Z,1014.65
2019-03-25T00:21:08.003Z,1014.54
2019-03-25T00:22:07.996Z,1014.53
2019-03-25T00:23:07.990Z,1014.56
2019-03-25T00:24:08.128Z,1014.49
2019-03-25T00:25:07.956Z,1014.55
2019-03-25T00:26:08.009Z,1014.50
2019-03-25T00:27:08.023Z,1014.50
2019-03-25T00:28:08.014Z,1014.45
2019-03-25T00:29:08.119Z,1014.46
2019-03-25T00:30:08.115Z,1014.43
2019-03-25T00:31:07.955Z,1014.54
2019-03-25T00:32:07.924Z,1014.49
2019-03-25T00:33:07.897Z,1014.47
2019-03-25T00:34:07.986Z,1014.52
2019-03-25T00:35:07.958Z,1014.48
2019-03-25T00:36:07.916Z,1014.52
2019-03-25T00:37:07.905Z,1014.47
2019-03-25T00:38:07.878Z,1014.46
2019-03-25T00:39:07.896Z,1014.40
2019-03-25T00:40:07.821Z,1014.43
2019-03-25T00:41:07.906Z,1014.37
2019-03-25T00:42:07.808Z,1014.39
2019-03-25T00:43:17.405Z,1014.30
2019-03-25T00:44:07.829Z,1014.30
2019-03-25T00:45:17.967Z,1014.31
2019-03-25T00:46:07.736Z,1014.19
2019-03-25T00:47:16.038Z,1014.22
2019-03-25T00:48:15.331Z,1014.18
2019-03-25T00:49:07.749Z,1014.14
2019-03-25T00:51:27.009Z,1014.12
2019-03-25T00:52:34.387Z,1014.10
2019-03-25T00:53:26.927Z,1014.06
2019-03-25T00:54:35.488Z,1014.09
2019-03-25T00:57:55.323Z,1013.95
2019-03-25T00:59:04.007Z,1013.92
2019-03-25T01:00:03.527Z,1013.91
2019-03-25T01:02:11.663Z,1013.80
2019-03-25T01:04:20.994Z,1013.69
2019-03-25T01:05:20.971Z,1013.69
2019-03-25T01:06:20.971Z,1013.58
2019-03-25T01:07:20.992Z,1013.60
2019-03-25T01:08:20.993Z,1013.60
2019-03-25T01:09:20.948Z,1013.53
2019-03-25T01:10:20.933Z,1013.54
2019-03-25T01:11:20.905Z,1013.61
2019-03-25T01:12:20.908Z,1013.57
2019-03-25T01:13:27.944Z,1013.60
2019-03-25T01:14:20.901Z,1013.59
2019-03-25T01:15:28.410Z,1013.54
2019-03-25T01:16:28.449Z,1013.53
2019-03-25T01:17:28.429Z,1013.44
2019-03-25T01:18:30.451Z,1013.46
2019-03-25T01:19:27.934Z,1013.32
2019-03-25T01:20:20.937Z,1013.39
2019-03-25T01:21:20.805Z,1013.37
2019-03-25T01:22:21.019Z,1013.28
2019-03-25T01:23:28.350Z,1013.33
2019-03-25T01:24:20.813Z,1013.33
2019-03-25T01:25:28.339Z,1013.29
2019-03-25T01:26:28.373Z,1013.24
2019-03-25T01:27:20.767Z,1013.18
2019-03-25T01:28:28.266Z,1013.17
2019-03-25T01:29:20.762Z,1013.21
2019-03-25T01:30:20.719Z,1013.18
2019-03-25T01:31:20.696Z,1013.20
2019-03-25T01:32:20.707Z,1013.17
2019-03-25T01:33:20.656Z,1013.17
2019-03-25T01:34:20.684Z,1013.11
2019-03-25T01:35:20.664Z,1013.14
2019-03-25T01:36:20.643Z,1013.15
2019-03-25T01:37:20.636Z,1013.09
2019-03-25T01:38:20.641Z,1013.02
2019-03-25T01:39:20.603Z,1013.08
2019-03-25T01:40:20.596Z,1013.01
2019-03-25T01:41:20.566Z,1012.98
2019-03-25T01:42:20.558Z,1012.99
2019-03-25T01:43:20.578Z,1012.99
2019-03-25T01:44:20.583Z,1013.02
2019-03-25T01:45:20.531Z,1012.97
2019-03-25T01:46:20.530Z,1012.89
2019-03-25T01:47:20.499Z,1012.89
2019-03-25T01:48:20.506Z,1012.91
2019-03-25T01:49:30.320Z,1012.82
2019-03-25T01:50:20.519Z,1012.81
2019-03-25T01:51:28.044Z,1012.85
2019-03-25T01:52:20.434Z,1012.83
2019-03-25T01:53:20.431Z,1012.81
2019-03-25T01:54:20.424Z,1012.81
2019-03-25T01:55:20.442Z,1012.72
2019-03-25T01:56:20.404Z,1012.75
2019-03-25T01:57:20.396Z,1012.72
2019-03-25T01:58:20.374Z,1012.73
2019-03-25T01:59:20.382Z,1012.74
2019-03-25T02:00:20.352Z,1012.72
2019-03-25T02:01:20.357Z,1012.63
2019-03-25T02:02:20.338Z,1012.73
2019-03-25T02:03:20.365Z,1012.64
2019-03-25T02:04:20.347Z,1012.66
2019-03-25T02:05:20.288Z,1012.61
2019-03-25T02:06:20.280Z,1012.62
2019-03-25T02:07:20.267Z,1012.60
2019-03-25T02:08:20.266Z,1012.68
2019-03-25T02:09:20.276Z,1012.59
2019-03-25T02:10:20.252Z,1012.64
2019-03-25T02:11:22.227Z,1012.60
2019-03-25T02:12:20.217Z,1012.61
2019-03-25T02:13:20.215Z,1012.59
2019-03-25T02:14:20.217Z,1012.52
2019-03-25T02:15:20.183Z,1012.50
2019-03-25T02:16:20.181Z,1012.42
2019-03-25T02:17:20.159Z,1012.47
2019-03-25T02:18:20.140Z,1012.44
2019-03-25T02:19:20.167Z,1012.42
2019-03-25T02:20:26.331Z,1012.38
2019-03-25T02:21:21.104Z,1012.33
2019-03-25T02:22:20.090Z,1012.37
2019-03-25T02:23:20.096Z,1012.33
2019-03-25T02:24:20.097Z,1012.33
2019-03-25T02:25:25.223Z,1012.33
2019-03-25T02:26:21.068Z,1012.30
2019-03-25T02:27:27.631Z,1012.27
2019-03-25T02:28:20.107Z,1012.23
2019-03-25T02:29:20.067Z,1012.27
2019-03-25T02:30:20.022Z,1012.21
2019-03-25T02:31:19.989Z,1012.23
2019-03-25T02:32:19.985Z,1012.20
2019-03-25T02:33:20.000Z,1012.17
2019-03-25T02:34:19.970Z,1012.13
2019-03-25T02:35:19.972Z,1012.11
2019-03-25T02:36:19.977Z,1012.10
2019-03-25T02:37:19.985Z,1012.12
2019-03-25T02:38:19.908Z,1012.05
2019-03-25T02:39:20.031Z,1012.02
2019-03-25T02:40:19.897Z,1012.14
2019-03-25T02:41:19.887Z,1012.05
2019-03-25T02:42:19.918Z,1011.97
2019-03-25T02:43:19.856Z,1012.03
2019-03-25T02:44:19.914Z,1012.00
2019-03-25T02:45:19.833Z,1011.94
2019-03-25T02:46:19.817Z,1011.97
2019-03-25T02:47:19.830Z,1011.91
2019-03-25T02:48:19.834Z,1011.89
2019-03-25T02:49:19.811Z,1011.90
2019-03-25T02:50:19.841Z,1011.89
2019-03-25T02:51:19.769Z,1011.85
2019-03-25T02:52:19.763Z,1011.88
2019-03-25T02:53:19.768Z,1011.87
2019-03-25T02:54:19.739Z,1011.80
2019-03-25T02:55:19.729Z,1011.77
2019-03-25T02:56:19.703Z,1011.84
2019-03-25T02:57:19.701Z,1011.72
2019-03-25T02:58:19.702Z,1011.64
2019-03-25T02:59:19.675Z,1011.66
2019-03-25T03:00:19.711Z,1011.65
2019-03-25T03:01:19.654Z,1011.61
2019-03-25T03:02:19.663Z,1011.66
2019-03-25T03:03:19.643Z,1011.63
2019-03-25T03:04:19.655Z,1011.61
2019-03-25T03:05:19.613Z,1011.58
2019-03-25T03:06:19.587Z,1011.53
2019-03-25T03:07:19.611Z,1011.55
2019-03-25T03:08:19.566Z,1011.54
2019-03-25T03:09:19.576Z,1011.52
2019-03-25T03:10:19.569Z,1011.52
2019-03-25T03:11:19.550Z,1011.48
2019-03-25T03:12:19.542Z,1011.51
2019-03-25T03:13:19.519Z,1011.51
2019-03-25T03:14:19.521Z,1011.51
2019-03-25T03:15:19.507Z,1011.46
2019-03-25T03:16:19.485Z,1011.50
2019-03-25T03:17:19.488Z,1011.47
2019-03-25T03:18:19.484Z,1011.46
2019-03-25T03:19:19.472Z,1011.40
2019-03-25T03:20:19.447Z,1011.40
2019-03-25T03:21:19.413Z,1011.27
2019-03-25T03:22:19.418Z,1011.33
2019-03-25T03:23:19.393Z,1011.34
2019-03-25T03:24:19.382Z,1011.35
2019-03-25T03:25:19.381Z,1011.28
2019-03-25T03:26:19.370Z,1011.28
2019-03-25T03:27:19.353Z,1011.27
2019-03-25T03:28:19.344Z,1011.21
2019-03-25T03:29:19.352Z,1011.23
2019-03-25T03:30:19.366Z,1011.13
2019-03-25T03:31:19.318Z,1011.14
2019-03-25T03:32:19.322Z,1011.16
2019-03-25T03:33:19.343Z,1011.01
2019-03-25T03:34:19.292Z,1011.09
2019-03-25T03:35:19.275Z,1011.06
2019-03-25T03:36:19.271Z,1011.09
2019-03-25T03:37:19.246Z,1011.02
2019-03-25T03:38:19.233Z,1011.03
2019-03-25T03:39:19.257Z,1011.02
2019-03-25T03:40:19.264Z,1010.99
2019-03-25T03:41:19.191Z,1010.96
2019-03-25T03:42:19.177Z,1010.98
2019-03-25T03:43:19.228Z,1010.98
2019-03-25T03:44:19.199Z,1010.94
2019-03-25T03:45:19.170Z,1010.95
2019-03-25T03:46:19.130Z,1010.92
2019-03-25T03:47:19.150Z,1010.92
2019-03-25T03:48:19.120Z,1010.92
2019-03-25T03:49:19.125Z,1010.90
2019-03-25T03:50:19.171Z,1010.89
2019-03-25T03:51:19.079Z,1010.88
2019-03-25T03:52:19.074Z,1010.89
2019-03-25T03:53:19.072Z,1010.87
2019-03-25T03:54:19.089Z,1010.86
2019-03-25T03:55:19.030Z,1010.80
2019-03-25T03:56:19.032Z,1010.81
2019-03-25T03:57:19.011Z,1010.79
2019-03-25T03:58:19.007Z,1010.77
2019-03-25T03:59:18.993Z,1010.74
2019-03-25T04:00:19.004Z,1010.76
2019-03-25T04:01:19.004Z,1010.73
2019-03-25T04:02:18.951Z,1010.75
2019-03-25T04:03:18.947Z,1010.68
2019-03-25T04:04:18.947Z,1010.65
2019-03-25T04:05:18.925Z,1010.66
2019-03-25T04:06:18.941Z,1010.67
2019-03-25T04:07:18.896Z,1010.63
2019-03-25T04:08:18.892Z,1010.56
2019-03-25T04:09:18.893Z,1010.47
2019-03-25T04:10:18.887Z,1010.54
2019-03-25T04:11:18.905Z,1010.45
2019-03-25T04:12:18.866Z,1010.45
2019-03-25T04:13:18.822Z,1010.43
2019-03-25T04:14:18.814Z,1010.45
2019-03-25T04:15:18.810Z,1010.43
2019-03-25T04:16:18.827Z,1010.46
2019-03-25T04:17:18.775Z,1010.40
2019-03-25T04:18:18.816Z,1010.33
2019-03-25T04:19:18.755Z,1010.34
2019-03-25T04:20:18.792Z,1010.27
2019-03-25T04:21:18.764Z,1010.23
2019-03-25T04:22:18.739Z,1010.27
2019-03-25T04:23:18.725Z,1010.16
2019-03-25T04:24:18.722Z,1010.20
2019-03-25T04:25:18.701Z,1010.14
2019-03-25T04:26:28.666Z,1010.14
2019-03-25T04:27:19.661Z,1010.15
2019-03-25T04:28:18.696Z,1010.13
2019-03-25T04:29:18.687Z,1010.15
2019-03-25T04:30:18.653Z,1010.18
2019-03-25T04:31:18.665Z,1010.12
2019-03-25T04:32:18.612Z,1010.09
2019-03-25T04:33:18.700Z,1010.11
2019-03-25T04:34:18.624Z,1010.05
2019-03-25T04:35:18.608Z,1010.06
2019-03-25T04:36:18.568Z,1009.96
2019-03-25T04:37:18.573Z,1009.96
2019-03-25T04:38:18.565Z,1009.96
2019-03-25T04:39:18.536Z,1010.01
2019-03-25T04:40:18.550Z,1009.98
2019-03-25T04:41:18.546Z,1010.00
2019-03-25T04:42:18.585Z,1009.88
2019-03-25T04:43:18.503Z,1009.88
2019-03-25T04:44:18.476Z,1009.82
2019-03-25T04:45:18.497Z,1009.82
2019-03-25T04:46:18.478Z,1009.84
2019-03-25T04:47:18.439Z,1009.86
2019-03-25T04:48:18.429Z,1009.81
2019-03-25T04:49:18.415Z,1009.82
2019-03-25T04:50:18.842Z,1009.75
2019-03-25T04:51:18.398Z,1009.74
2019-03-25T04:52:18.404Z,1009.80
2019-03-25T04:53:18.362Z,1009.73
2019-03-25T04:54:18.406Z,1009.79
2019-03-25T04:55:18.353Z,1009.72
2019-03-25T04:56:18.342Z,1009.68
2019-03-25T04:57:18.331Z,1009.57
2019-03-25T04:58:18.320Z,1009.68
2019-03-25T04:59:18.303Z,1009.61
2019-03-25T05:00:18.285Z,1009.59
2019-03-25T05:01:18.606Z,1009.58
2019-03-25T05:02:18.307Z,1009.54
2019-03-25T05:03:18.315Z,1009.59
2019-03-25T05:04:18.583Z,1009.56
2019-03-25T05:05:18.246Z,1009.56
2019-03-25T05:06:18.258Z,1009.54
2019-03-25T05:07:18.258Z,1009.50
2019-03-25T05:08:18.266Z,1009.54
2019-03-25T05:09:18.211Z,1009.49
2019-03-25T05:10:18.175Z,1009.42
2019-03-25T05:11:18.195Z,1009.42
2019-03-25T05:12:18.155Z,1009.42
2019-03-25T05:13:18.173Z,1009.42
2019-03-25T05:14:18.143Z,1009.40
2019-03-25T05:15:18.110Z,1009.38
2019-03-25T05:16:18.693Z,1009.44
2019-03-25T05:17:18.106Z,1009.42
2019-03-25T05:18:18.103Z,1009.34
2019-03-25T05:19:18.068Z,1009.36
2019-03-25T05:20:18.058Z,1009.30
2019-03-25T05:21:18.062Z,1009.35
2019-03-25T05:22:18.045Z,1009.37
2019-03-25T05:23:18.070Z,1009.28
2019-03-25T05:24:18.007Z,1009.29
2019-03-25T05:25:18.006Z,1009.32
2019-03-25T05:26:17.993Z,1009.28
2019-03-25T05:27:18.005Z,1009.29
2019-03-25T05:28:18.012Z,1009.21
2019-03-25T05:29:17.975Z,1009.18
2019-03-25T05:30:17.947Z,1009.21
2019-03-25T05:31:17.943Z,1009.17
2019-03-25T05:32:17.914Z,1009.22
2019-03-25T05:33:17.905Z,1009.23
2019-03-25T05:34:17.899Z,1009.26
2019-03-25T05:35:17.881Z,1009.14
2019-03-25T05:36:17.903Z,1009.13
2019-03-25T05:37:17.928Z,1009.12
2019-03-25T05:38:17.850Z,1009.11
2019-03-25T05:39:17.834Z,1009.14
2019-03-25T05:40:17.903Z,1009.07
2019-03-25T05:41:17.840Z,1009.05
2019-03-25T05:42:17.825Z,1009.15
2019-03-25T05:43:17.791Z,1009.14
2019-03-25T05:44:17.801Z,1009.17
2019-03-25T05:45:17.813Z,1009.19
2019-03-25T05:46:17.781Z,1009.14
2019-03-25T05:47:17.792Z,1009.17
2019-03-25T05:48:17.735Z,1009.30
2019-03-25T05:49:17.741Z,1009.31
2019-03-25T05:50:17.734Z,1009.24
2019-03-25T05:51:17.705Z,1009.19
2019-03-25T05:52:26.879Z,1009.21
2019-03-25T05:53:17.686Z,1009.21
2019-03-25T05:54:17.662Z,1009.28
2019-03-25T05:55:17.757Z,1009.28
2019-03-25T05:56:17.642Z,1009.24
2019-03-25T05:57:17.650Z,1009.20
2019-03-25T05:58:17.639Z,1009.25
2019-03-25T05:59:17.609Z,1009.23
2019-03-25T06:00:17.613Z,1009.16
2019-03-25T06:01:17.612Z,1009.22
2019-03-25T06:02:17.601Z,1009.10
2019-03-25T06:03:17.677Z,1009.14
2019-03-25T06:04:17.559Z,1009.03
2019-03-25T06:05:17.634Z,1009.09
2019-03-25T06:06:17.535Z,1009.08
2019-03-25T06:07:17.540Z,1009.08
2019-03-25T06:08:17.930Z,1009.11
2019-03-25T06:09:17.550Z,1009.02
2019-03-25T06:10:17.520Z,1009.08
2019-03-25T06:11:17.477Z,1009.06
2019-03-25T06:12:17.530Z,1009.09
2019-03-25T06:13:17.459Z,1009.04
2019-03-25T06:14:17.518Z,1009.06
2019-03-25T06:15:17.461Z,1009.07
2019-03-25T06:16:17.421Z,1009.03
2019-03-25T06:17:17.428Z,1009.05
2019-03-25T06:18:17.436Z,1009.03
2019-03-25T06:19:17.392Z,1009.06
2019-03-25T06:20:17.405Z,1009.08
2019-03-25T06:21:17.429Z,1009.09
2019-03-25T06:22:17.602Z,1008.91
2019-03-25T06:23:17.344Z,1009.00
2019-03-25T06:24:17.335Z,1009.06
2019-03-25T06:25:17.326Z,1009.06
2019-03-25T06:26:17.310Z,1009.04
2019-03-25T06:27:17.325Z,1009.06
2019-03-25T06:28:17.300Z,1009.06
2019-03-25T06:29:17.284Z,1009.08
2019-03-25T06:30:17.267Z,1009.14
2019-03-25T06:31:17.303Z,1009.19
2019-03-25T06:32:17.268Z,1009.08
2019-03-25T06:33:17.256Z,1009.23
2019-03-25T06:34:17.229Z,1009.16
2019-03-25T06:35:17.243Z,1009.24
2019-03-25T06:36:17.200Z,1009.14
2019-03-25T06:37:17.207Z,1009.15
2019-03-25T06:38:17.186Z,1009.11
2019-03-25T06:39:17.169Z,1009.24
2019-03-25T06:40:17.269Z,1009.16
2019-03-25T06:41:17.146Z,1009.13
2019-03-25T06:42:17.136Z,1009.13
2019-03-25T06:43:17.326Z,1009.07
2019-03-25T06:44:17.121Z,1009.22
2019-03-25T06:45:17.102Z,1009.24
2019-03-25T06:46:17.181Z,1009.17
2019-03-25T06:47:17.088Z,1009.22
2019-03-25T06:48:17.236Z,1009.23
2019-03-25T06:49:17.068Z,1009.25
2019-03-25T06:50:17.062Z,1009.23
2019-03-25T06:51:17.047Z,1009.27
2019-03-25T06:52:17.025Z,1009.27
2019-03-25T06:53:17.047Z,1009.25
2019-03-25T06:54:18.829Z,1009.21
2019-03-25T06:55:18.037Z,1009.26
2019-03-25T06:56:17.084Z,1009.34
2019-03-25T06:57:25.185Z,1009.29
2019-03-25T06:58:18.082Z,1009.34
2019-03-25T06:59:17.157Z,1009.32
2019-03-25T07:00:16.945Z,1009.34
2019-03-25T07:01:17.098Z,1009.40
2019-03-25T07:02:16.985Z,1009.34
2019-03-25T07:03:16.897Z,1009.32
2019-03-25T07:04:16.900Z,1009.29
2019-03-25T07:05:16.875Z,1009.31
2019-03-25T07:06:16.869Z,1009.26
2019-03-25T07:07:16.884Z,1009.32
2019-03-25T07:08:16.842Z,1009.34
2019-03-25T07:09:18.737Z,1009.31
2019-03-25T07:10:16.824Z,1009.35
2019-03-25T07:11:16.818Z,1009.31
2019-03-25T07:12:16.801Z,1009.26
2019-03-25T07:13:16.784Z,1009.34
2019-03-25T07:14:16.790Z,1009.26
2019-03-25T07:15:16.769Z,1009.27
2019-03-25T07:16:16.758Z,1009.30
2019-03-25T07:17:16.766Z,1009.30
2019-03-25T07:18:16.753Z,1009.28
2019-03-25T07:19:16.774Z,1009.33
2019-03-25T07:20:16.712Z,1009.29
2019-03-25T07:21:16.702Z,1009.31
2019-03-25T07:22:16.714Z,1009.36
2019-03-25T07:23:16.708Z,1009.38
2019-03-25T07:24:16.728Z,1009.28
2019-03-25T07:25:16.649Z,1009.35
2019-03-25T07:26:16.642Z,1009.32
2019-03-25T07:27:16.631Z,1009.31
2019-03-25T07:28:16.628Z,1009.35
2019-03-25T07:29:16.648Z,1009.35
2019-03-25T07:30:16.598Z,1009.34
2019-03-25T07:31:16.587Z,1009.36
2019-03-25T07:32:16.576Z,1009.40
2019-03-25T07:33:16.643Z,1009.34
2019-03-25T07:34:16.571Z,1009.48
2019-03-25T07:35:16.573Z,1009.48
2019-03-25T07:36:16.527Z,1009.37
2019-03-25T07:37:16.518Z,1009.43
2019-03-25T07:38:16.515Z,1009.45
2019-03-25T07:39:16.507Z,1009.37
2019-03-25T07:40:16.514Z,1009.49
2019-03-25T07:41:17.192Z,1009.49
2019-03-25T07:42:16.465Z,1009.42
2019-03-25T07:43:16.449Z,1009.38
2019-03-25T07:44:16.466Z,1009.42
2019-03-25T07:45:16.457Z,1009.38
2019-03-25T07:46:16.484Z,1009.46
2019-03-25T07:47:16.406Z,1009.40
2019-03-25T07:48:16.392Z,1009.45
2019-03-25T07:49:16.461Z,1009.45
2019-03-25T07:50:16.379Z,1009.41
2019-03-25T07:51:16.369Z,1009.48
2019-03-25T07:52:16.388Z,1009.45
2019-03-25T07:53:16.339Z,1009.47
2019-03-25T07:54:16.409Z,1009.48
2019-03-25T07:55:16.866Z,1009.44
2019-03-25T07:56:16.321Z,1009.51
2019-03-25T07:57:16.311Z,1009.53
2019-03-25T07:58:16.310Z,1009.49
2019-03-25T07:59:18.141Z,1009.48
2019-03-25T08:00:16.273Z,1009.50
2019-03-25T08:01:16.271Z,1009.60
2019-03-25T08:02:16.282Z,1009.48
2019-03-25T08:03:16.232Z,1009.50
2019-03-25T08:04:16.221Z,1009.53
2019-03-25T08:05:16.232Z,1009.60
2019-03-25T08:06:16.223Z,1009.52
2019-03-25T08:07:16.200Z,1009.54
2019-03-25T08:08:16.208Z,1009.56
2019-03-25T08:09:16.200Z,1009.53
2019-03-25T08:10:16.185Z,1009.53
2019-03-25T08:11:16.160Z,1009.57
2019-03-25T08:12:16.139Z,1009.64
2019-03-25T08:13:16.179Z,1009.56
2019-03-25T08:14:16.172Z,1009.59
2019-03-25T08:15:16.131Z,1009.57
2019-03-25T08:16:16.095Z,1009.66
2019-03-25T08:17:16.070Z,1009.64
2019-03-25T08:18:16.079Z,1009.61
2019-03-25T08:19:16.065Z,1009.69
2019-03-25T08:20:16.202Z,1009.60
2019-03-25T08:21:16.028Z,1009.70
2019-03-25T08:22:16.022Z,1009.64
2019-03-25T08:23:16.030Z,1009.73
2019-03-25T08:24:16.016Z,1009.56
2019-03-25T08:25:16.012Z,1009.68
2019-03-25T08:26:16.002Z,1009.72
2019-03-25T08:27:15.963Z,1009.68
2019-03-25T08:28:15.952Z,1009.69
2019-03-25T08:29:15.942Z,1009.67
2019-03-25T08:30:15.948Z,1009.69
2019-03-25T08:31:15.922Z,1009.70
2019-03-25T08:32:15.905Z,1009.67
2019-03-25T08:33:15.899Z,1009.68
2019-03-25T08:34:15.898Z,1009.73
2019-03-25T08:35:15.890Z,1009.70
2019-03-25T08:36:15.877Z,1009.71
2019-03-25T08:37:15.851Z,1009.72
2019-03-25T08:38:15.860Z,1009.74
2019-03-25T08:39:15.836Z,1009.74
2019-03-25T08:40:15.850Z,1009.82
2019-03-25T08:41:15.954Z,1009.74
2019-03-25T08:42:15.804Z,1009.78
2019-03-25T08:43:15.790Z,1009.79
2019-03-25T08:44:15.775Z,1009.82
2019-03-25T08:45:15.775Z,1009.81
2019-03-25T08:46:15.759Z,1009.86
2019-03-25T08:47:15.740Z,1009.95
2019-03-25T08:48:15.792Z,1009.87
2019-03-25T08:49:15.732Z,1009.93
2019-03-25T08:50:15.824Z,1009.89
2019-03-25T08:51:15.719Z,1009.89
2019-03-25T08:52:15.709Z,1009.88
2019-03-25T08:53:15.678Z,1009.95
2019-03-25T08:54:15.681Z,1009.90
2019-03-25T08:55:15.792Z,1009.95
2019-03-25T08:56:15.644Z,1009.90
2019-03-25T08:57:15.632Z,1009.91
2019-03-25T08:58:15.616Z,1009.88
2019-03-25T08:59:15.609Z,1009.94
2019-03-25T09:00:15.603Z,1009.96
2019-03-25T09:01:15.649Z,1009.93
2019-03-25T09:02:15.633Z,1010.14
2019-03-25T09:03:15.560Z,1010.04
2019-03-25T09:04:15.551Z,1010.08
2019-03-25T09:05:15.564Z,1010.11
2019-03-25T09:06:15.555Z,1010.13
2019-03-25T09:07:15.514Z,1010.11
2019-03-25T09:08:15.509Z,1010.16
2019-03-25T09:09:15.631Z,1010.09
2019-03-25T09:10:15.487Z,1010.06
2019-03-25T09:11:15.519Z,1010.13
2019-03-25T09:12:15.495Z,1010.11
2019-03-25T09:13:15.447Z,1010.07
2019-03-25T09:14:15.535Z,1010.10
2019-03-25T09:15:15.547Z,1010.10
2019-03-25T09:16:15.429Z,1010.13
2019-03-25T09:17:15.432Z,1010.17
2019-03-25T09:18:15.404Z,1010.14
2019-03-25T09:19:15.388Z,1010.14
2019-03-25T09:20:15.373Z,1010.11
2019-03-25T09:21:15.392Z,1010.14
2019-03-25T09:22:15.359Z,1010.22
2019-03-25T09:23:15.336Z,1010.21
2019-03-25T09:24:15.322Z,1010.28
2019-03-25T09:25:15.315Z,1010.23
2019-03-25T09:26:16.356Z,1010.21
2019-03-25T09:27:15.289Z,1010.33
2019-03-25T09:28:24.153Z,1010.26
2019-03-25T09:29:16.264Z,1010.25
2019-03-25T09:30:15.255Z,1010.34
2019-03-25T09:31:15.262Z,1010.35
2019-03-25T09:32:15.363Z,1010.25
2019-03-25T09:33:15.304Z,1010.31
2019-03-25T09:34:15.223Z,1010.34
2019-03-25T09:35:15.247Z,1010.35
2019-03-25T09:36:15.188Z,1010.31
2019-03-25T09:37:15.322Z,1010.29
2019-03-25T09:38:15.171Z,1010.24
2019-03-25T09:39:15.169Z,1010.31
2019-03-25T09:40:15.214Z,1010.29
2019-03-25T09:41:15.133Z,1010.35
2019-03-25T09:42:15.117Z,1010.45
2019-03-25T09:43:15.131Z,1010.38
2019-03-25T09:44:15.104Z,1010.38
2019-03-25T09:45:15.125Z,1010.40
2019-03-25T09:46:15.084Z,1010.42
2019-03-25T09:47:15.062Z,1010.37
2019-03-25T09:48:15.055Z,1010.32
2019-03-25T09:49:15.041Z,1010.30
2019-03-25T09:50:15.167Z,1010.25
2019-03-25T09:51:15.029Z,1010.41
2019-03-25T09:52:15.006Z,1010.25
2019-03-25T09:53:14.998Z,1010.32
2019-03-25T09:54:14.989Z,1010.30
2019-03-25T09:55:16.629Z,1010.31
2019-03-25T09:56:14.975Z,1010.36
2019-03-25T09:57:14.953Z,1010.33
2019-03-25T09:58:14.941Z,1010.24
2019-03-25T09:59:14.937Z,1010.29
2019-03-25T10:00:14.922Z,1010.37
2019-03-25T10:01:14.933Z,1010.36
2019-03-25T10:02:14.928Z,1010.23
2019-03-25T10:03:14.883Z,1010.33
2019-03-25T10:04:14.931Z,1010.43
2019-03-25T10:05:15.474Z,1010.40
2019-03-25T10:06:15.001Z,1010.45
2019-03-25T10:07:14.887Z,1010.39
2019-03-25T10:08:14.846Z,1010.44
2019-03-25T10:09:14.813Z,1010.58
2019-03-25T10:10:14.810Z,1010.49
2019-03-25T10:11:14.806Z,1010.57
2019-03-25T10:12:14.936Z,1010.55
2019-03-25T10:13:14.808Z,1010.68
2019-03-25T10:14:14.764Z,1010.56
2019-03-25T10:15:15.347Z,1010.48
2019-03-25T10:16:14.750Z,1010.55
2019-03-25T10:17:14.761Z,1010.58
2019-03-25T10:18:14.726Z,1010.56
2019-03-25T10:19:14.732Z,1010.58
2019-03-25T10:20:14.761Z,1010.60
2019-03-25T10:21:14.695Z,1010.86
2019-03-25T10:22:14.679Z,1010.67
2019-03-25T10:23:14.666Z,1010.75
2019-03-25T10:24:14.689Z,1010.70
2019-03-25T10:25:14.635Z,1010.71
2019-03-25T10:26:14.768Z,1010.80
2019-03-25T10:27:14.621Z,1010.84
2019-03-25T10:28:14.636Z,1010.77
2019-03-25T10:29:14.591Z,1010.80
2019-03-25T10:30:14.598Z,1010.82
2019-03-25T10:31:17.243Z,1010.77
2019-03-25T10:32:14.577Z,1010.76
2019-03-25T10:33:14.555Z,1010.77
2019-03-25T10:34:14.555Z,1010.74
2019-03-25T10:35:14.528Z,1010.70
2019-03-25T10:36:14.569Z,1010.72
2019-03-25T10:37:14.508Z,1010.75
2019-03-25T10:38:19.519Z,1010.73
2019-03-25T10:39:15.614Z,1010.69
2019-03-25T10:40:14.486Z,1010.67
2019-03-25T10:41:14.493Z,1010.69
2019-03-25T10:42:14.824Z,1010.58
2019-03-25T10:43:14.561Z,1010.69
2019-03-25T10:44:14.428Z,1010.72
2019-03-25T10:45:14.420Z,1010.64
2019-03-25T10:46:14.408Z,1010.69
2019-03-25T10:47:14.872Z,1010.63
2019-03-25T10:48:14.378Z,1010.65
2019-03-25T10:49:16.190Z,1010.68
2019-03-25T10:50:14.385Z,1010.70
2019-03-25T10:51:14.344Z,1010.70
2019-03-25T10:52:14.352Z,1010.64
2019-03-25T10:53:14.480Z,1010.84
2019-03-25T10:54:14.326Z,1010.74
2019-03-25T10:55:14.296Z,1010.75
2019-03-25T10:56:14.336Z,1010.84
2019-03-25T10:57:14.377Z,1010.68
2019-03-25T10:58:14.284Z,1010.67
2019-03-25T10:59:14.254Z,1010.71
2019-03-25T11:00:14.247Z,1010.71
2019-03-25T11:01:14.227Z,1010.72
2019-03-25T11:02:14.219Z,1010.75
2019-03-25T11:03:14.231Z,1010.77
2019-03-25T11:04:14.929Z,1010.78
2019-03-25T11:05:14.192Z,1010.75
2019-03-25T11:06:14.173Z,1010.71
2019-03-25T11:07:14.236Z,1010.77
2019-03-25T11:08:14.168Z,1010.69
2019-03-25T11:09:14.179Z,1010.79
2019-03-25T11:10:14.131Z,1010.70
2019-03-25T11:11:14.183Z,1010.70
2019-03-25T11:12:14.159Z,1010.70
2019-03-25T11:13:14.095Z,1010.74
2019-03-25T11:14:14.092Z,1010.70
2019-03-25T11:15:14.091Z,1010.73
2019-03-25T11:16:14.129Z,1010.75
2019-03-25T11:17:14.092Z,1010.74
2019-03-25T11:18:14.065Z,1010.76
2019-03-25T11:19:14.055Z,1010.84
2019-03-25T11:20:14.069Z,1010.84
2019-03-25T11:21:14.026Z,1010.87
2019-03-25T11:22:13.993Z,1010.84
2019-03-25T11:23:13.991Z,1010.79
2019-03-25T11:24:15.226Z,1010.80
2019-03-25T11:25:14.127Z,1010.84
2019-03-25T11:26:13.960Z,1010.81
2019-03-25T11:27:13.939Z,1010.86
2019-03-25T11:28:13.954Z,1010.84
2019-03-25T11:29:13.919Z,1010.76
2019-03-25T11:30:13.915Z,1010.75
2019-03-25T11:31:13.914Z,1010.77
2019-03-25T11:32:13.902Z,1010.69
2019-03-25T11:33:13.880Z,1010.74
2019-03-25T11:34:13.862Z,1010.67
2019-03-25T11:35:13.846Z,1010.84
2019-03-25T11:36:13.859Z,1010.87
2019-03-25T11:37:13.843Z,1010.83
2019-03-25T11:38:13.837Z,1010.79
2019-03-25T11:39:13.803Z,1010.83
2019-03-25T11:40:13.797Z,1010.82
2019-03-25T11:41:13.818Z,1010.75
2019-03-25T11:42:13.830Z,1010.80
2019-03-25T11:43:13.774Z,1010.82
2019-03-25T11:44:13.770Z,1010.75
2019-03-25T11:45:13.739Z,1010.75
2019-03-25T11:46:13.729Z,1010.75
2019-03-25T11:47:13.732Z,1010.78
2019-03-25T11:48:13.704Z,1010.89
2019-03-25T11:49:13.711Z,1010.74
2019-03-25T11:50:13.722Z,1010.67
2019-03-25T11:51:13.672Z,1010.62
2019-03-25T11:52:13.662Z,1010.60
2019-03-25T11:53:13.656Z,1010.62
2019-03-25T11:54:13.663Z,1010.63
2019-03-25T11:55:13.656Z,1010.62
2019-03-25T11:56:13.614Z,1010.67
2019-03-25T11:57:13.610Z,1010.61
2019-03-25T11:58:13.588Z,1010.58
2019-03-25T11:59:18.531Z,1010.52
2019-03-25T12:00:14.566Z,1010.52
2019-03-25T12:01:13.557Z,1010.50
2019-03-25T12:02:17.429Z,1010.51
2019-03-25T12:03:13.539Z,1010.53
2019-03-25T12:04:13.556Z,1010.44
2019-03-25T12:05:13.512Z,1010.54
2019-03-25T12:06:13.526Z,1010.50
2019-03-25T12:07:13.487Z,1010.51
2019-03-25T12:08:13.480Z,1010.62
2019-03-25T12:09:13.699Z,1010.52
2019-03-25T12:10:13.477Z,1010.50
2019-03-25T12:11:13.457Z,1010.55